• Join FlightAware (Why Join?)
  • Login
  • US Flag 
08:15PM EDT


 

Airport Tracker/Info


-or-


 

Live Flight TrackerFlight Track Log ✈ UAL582 ✈ 28-Aug-2013 ✈ CYYZ - KORD

Flight Track Log - Related Links

Times and Time Zones

All times are in EDT time to prevent confusion due to time zone crossing. See the UAL582 flight status page for this flight to view local times or setup timezone preferences in your user account.

Time Position Orientation Groundspeed Altitude Reporting Facility
EDT Latitude Longitude Course Direction KTS MPH feet Rate Location/Type
05:23PM 43.6833 -79.6167 270° West 50 58 1,300  Level Toronto Center
05:24PM 43.7333 -79.5833 26° Northeast 190 219 3,100 2,160 Climbing Toronto Center
05:25PM 43.7833 -79.5833 360° North 250 288 5,700 1,920 Climbing Toronto Center
05:26PM 43.7011 -79.9793 277° West  Level FlightAware Approximate
05:26PM 43.8000 -79.6833 283° West 280 322 7,000  Level Toronto Center
05:27PM 43.7113 -80.1012 277° West  Level FlightAware Approximate
05:27PM 43.8167 -79.8000 281° West 290 334 7,000  Level Toronto Center
05:28PM 43.7173 -80.2235 277° West  Level FlightAware Approximate
05:28PM 43.8333 -79.9167 281° West 290 334 7,000  Level Toronto Center
05:29PM 43.7284 -80.3453 277° West  Level FlightAware Approximate
05:29PM 43.8167 -80.0333 259° West 290 334 7,000  Level Toronto Center
05:30PM 43.7334 -80.4677 270° West  Level FlightAware Approximate
05:30PM 43.8000 -80.1167 255° West 290 334 8,100  Level Toronto Center
05:31PM 43.7833 -80.2500 260° West 300 345 11,000 2,100 Climbing Toronto Center
05:32PM 43.7667 -80.3667 259° West 350 403 12,400 2,040 Climbing Toronto Center
05:33PM 43.7500 -80.5333 262° West 380 437 15,100 2,400 Climbing Toronto Center
05:34PM 43.7167 -80.6667 251° West 390 449 17,200 2,100 Climbing Toronto Center
05:35PM 43.6667 -80.8333 248° West 400 460 19,300 1,860 Climbing Toronto Center
05:36PM 43.6333 -80.9667 251° West 410 472 21,000 1,560 Climbing Toronto Center
05:37PM 43.6000 -81.1000 251° West 420 483 22,500 1,500 Climbing Toronto Center
05:38PM 43.5833 -81.2833 263° West 420 483 24,100 1,740 Climbing Toronto Center
05:39PM 43.5833 -81.4500 270° West 430 495 26,000 2,400 Climbing Toronto Center
05:40PM 43.5667 -81.5833 260° West 400 460 28,900 1,560 Climbing Toronto Center
05:41PM 43.5500 -81.7500 262° West 400 460 29,200 420 Climbing Toronto Center
05:42PM 43.5333 -81.9167 262° West 430 495 29,800 780 Climbing Toronto Center
05:43PM 43.4667 -82.0667 239° Southwest 450 518 30,800 1,020 Climbing Toronto Center
05:44PM 43.4167 -82.2500 249° West 450 518 31,900 600 Climbing Toronto Center
05:45PM 43.3833 -82.3833 251° West 450 518 32,000  Climbing Toronto Center
05:46PM 43.3333 -82.5667 250° West 450 518 32,000  Level Toronto Center
05:47PM 43.2667 -82.7000 236° Southwest 450 518 32,000  Level Toronto Center
05:48PM 43.2333 -82.8833 256° West 450 518 32,000  Level Toronto Center
05:49PM 43.1833 -83.0167 243° Southwest 450 518 32,000  Level Toronto Center
05:50PM 43.1333 -83.2000 250° West 450 518 32,000  Level Toronto Center
05:51PM 43.0833 -83.3500 246° West 450 518 32,000  Level Toronto Center
05:52PM 43.0333 -83.4833 243° Southwest 450 518 32,000  Level Toronto Center
05:53PM 42.9833 -83.6667 250° West 450 518 32,000  Level Toronto Center
05:54PM 42.9500 -83.8167 253° West 450 518 32,000  Level Toronto Center
05:55PM 42.9467 -83.9625 268° West 441 507 32,000  Level Chicago Center
05:56PM 42.9300 -84.1283 262° West 441 507 32,000  Level Chicago Center
05:57PM 42.9136 -84.2933 262° West 440 506 32,000  Level Chicago Center
05:58PM 42.8972 -84.4581 262° West 440 506 32,000  Level Chicago Center
05:59PM 42.8811 -84.6239 263° West 442 509 32,000  Level Chicago Center
06:00PM 42.8633 -84.7892 262° West 441 507 32,000  Level Chicago Center
06:01PM 42.8431 -84.9783 262° West 423 487 32,000  Level Chicago Center
06:02PM 42.8267 -85.1364 262° West 421 484 32,000 -120 Level Chicago Center
06:03PM 42.8094 -85.2936 262° West 421 484 31,800 -600 Descending Chicago Center
06:04PM 42.7919 -85.4511 261° West 422 486 30,800 -1,560 Descending Chicago Center
06:06PM 42.7664 -85.6064 257° West 420 483 28,600 -3,120 Descending Chicago Center
06:07PM 42.7400 -85.7544 256° West 405 466 24,400 -3,720 Descending Chicago Center
06:08PM 42.7142 -85.8958 256° West 389 448 21,000 -2,160 Descending Chicago Center
06:09PM 42.6850 -86.0578 256° West 371 427 20,000 -480 Descending Chicago Center
06:10PM 42.6606 -86.1914 256° West 364 419 20,000  Level Chicago Center
06:11PM 42.6358 -86.3214 256° West 358 412 20,000 -60 Level Chicago Center
06:12PM 42.6117 -86.4531 256° West 360 414 19,900 -840 Descending Chicago Center
06:13PM 42.5839 -86.5953 255° West 387 445 18,300 -1,740 Descending Chicago Center
06:14PM 42.5528 -86.7642 256° West 394 453 16,400 -1,620 Descending Chicago Center
06:15PM 42.5217 -86.8758 249° West 384 442 15,000 -1,620 Descending Chicago Center
06:16PM 42.4775 -87.0339 249° West 375 432 13,100 -1,800 Descending Chicago Center
06:17PM 42.4417 -87.1611 249° West 364 419 11,400 -1,500 Descending Chicago Center
06:18PM 42.4056 -87.2897 249° West 366 421 10,000 -720 Descending Chicago Center
06:19PM 42.3667 -87.4336 250° West 360 414 10,000  Level Chicago Center
06:20PM 42.2975 -87.5319 226° Southwest 367 422 10,000 -60 Level Chicago Center
06:21PM 42.2272 -87.6192 223° Southwest 344 396 9,900 -720 Descending Chicago Center
06:22PM 42.1642 -87.6942 221° Southwest 308 354 8,600 -1,380 Descending Chicago Center
06:23PM 42.1025 -87.7672 221° Southwest 298 343 7,100 -780 Descending Chicago Center
06:24PM 42.0119 -87.8044 197° South 285 328 7,000 -60 Descending Chicago Center
06:25PM 41.9456 -87.8297 196° South 254 292 7,000 -60 Level Chicago Center
06:26PM 41.8781 -87.8547 195° South 253 291 6,900 -600 Descending Chicago Center
06:27PM 41.8169 -87.8908 204° Southwest 248 285 5,800 -1,080 Descending Chicago Center
06:28PM 41.7631 -87.9447 217° Southwest 246 283 4,700 -900 Descending Chicago Center
06:29PM 41.7825 -88.0331 286° West 235 270 4,000 -480 Descending Chicago Center
06:30PM 41.8267 -88.0436 350° North 207 238 3,800 -540 Descending Chicago Center
06:31PM 41.8644 -88.0058 37° Northeast 182 209 2,900 -840 Descending Chicago Center
06:32PM 41.8992 -87.9639 42° Northeast 174 200 2,100 -780 Descending Chicago Center
06:33PM 41.9275 -87.9303 41° Northeast 157 181 1,400 -540 Descending Chicago Center
06:35PM 41.9586 -87.8922 42° Northeast 148 170 1,100 -300 Descending Chicago Center